Flughafen Wetterinformationen

LTBA 160320Z 03010KT 010V100 9999 BKN035 06/M00 Q1027 NOSIG

VATSIM Feed

Card image cap

ATC Buchungen

Position Name Datum Zeit in UTC
LTBB_CTR Sebahattin Pekel 16/02/2019 1700 ‐ 2200

Card image cap

Aktive Flugsicherung

Derzeit sind keine Fluglotsen Online

Blog

Read our latest news and get to know us better.